sensor_id;sensor_type;location;lat;lon;timestamp;P1;durP1;ratioP1;P2;durP2;ratioP2
41139;SDS011;26881;48.784;9.192;2022-09-24T00:03:31;8.02;;;6.68;;
41139;SDS011;26881;48.784;9.192;2022-09-24T00:08:53;8.10;;;6.18;;
41139;SDS011;26881;48.784;9.192;2022-09-24T00:14:16;10.27;;;7.22;;
41139;SDS011;26881;48.784;9.192;2022-09-24T00:19:38;11.95;;;9.00;;
41139;SDS011;26881;48.784;9.192;2022-09-24T00:25:00;12.00;;;7.93;;
41139;SDS011;26881;48.784;9.192;2022-09-24T00:30:41;15.05;;;7.68;;
41139;SDS011;26881;48.784;9.192;2022-09-24T00:36:04;11.68;;;7.75;;
41139;SDS011;26881;48.784;9.192;2022-09-24T00:41:28;12.50;;;8.02;;
41139;SDS011;26881;48.784;9.192;2022-09-24T00:46:52;10.93;;;6.90;;
41139;SDS011;26881;48.784;9.192;2022-09-24T00:52:14;10.50;;;7.15;;
41139;SDS011;26881;48.784;9.192;2022-09-24T00:57:37;8.50;;;6.80;;
41139;SDS011;26881;48.784;9.192;2022-09-24T01:03:01;11.45;;;6.28;;
41139;SDS011;26881;48.784;9.192;2022-09-24T01:08:26;9.38;;;6.28;;
41139;SDS011;26881;48.784;9.192;2022-09-24T01:31:11;10.43;;;5.88;;
41139;SDS011;26881;48.784;9.192;2022-09-24T01:36:39;12.23;;;6.45;;
41139;SDS011;26881;48.784;9.192;2022-09-24T01:42:03;8.20;;;6.15;;
41139;SDS011;26881;48.784;9.192;2022-09-24T01:47:43;7.28;;;5.85;;
41139;SDS011;26881;48.784;9.192;2022-09-24T01:53:10;14.70;;;7.10;;
41139;SDS011;26881;48.784;9.192;2022-09-24T02:04:46;9.90;;;6.35;;
41139;SDS011;26881;48.784;9.192;2022-09-24T02:10:17;10.93;;;6.25;;
41139;SDS011;26881;48.784;9.192;2022-09-24T02:15:41;7.53;;;6.75;;
41139;SDS011;26881;48.784;9.192;2022-09-24T02:21:08;10.88;;;6.63;;
41139;SDS011;26881;48.784;9.192;2022-09-24T02:26:33;9.52;;;6.55;;
41139;SDS011;26881;48.784;9.192;2022-09-24T02:31:55;12.23;;;6.72;;
41139;SDS011;26881;48.784;9.192;2022-09-24T02:37:20;8.80;;;6.63;;
41139;SDS011;26881;48.784;9.192;2022-09-24T02:42:43;11.57;;;7.20;;
41139;SDS011;26881;48.784;9.192;2022-09-24T02:48:05;7.43;;;6.63;;
41139;SDS011;26881;48.784;9.192;2022-09-24T02:53:27;10.40;;;6.78;;
41139;SDS011;26881;48.784;9.192;2022-09-24T02:58:48;8.93;;;7.10;;
41139;SDS011;26881;48.784;9.192;2022-09-24T03:04:10;7.43;;;6.57;;
41139;SDS011;26881;48.784;9.192;2022-09-24T03:09:33;10.25;;;7.75;;
41139;SDS011;26881;48.784;9.192;2022-09-24T03:14:55;8.77;;;6.32;;
41139;SDS011;26881;48.784;9.192;2022-09-24T03:20:16;10.02;;;7.93;;
41139;SDS011;26881;48.784;9.192;2022-09-24T03:25:38;11.60;;;8.00;;
41139;SDS011;26881;48.784;9.192;2022-09-24T03:31:00;10.63;;;8.23;;
41139;SDS011;26881;48.784;9.192;2022-09-24T03:36:23;13.35;;;9.02;;
41139;SDS011;26881;48.784;9.192;2022-09-24T03:41:49;11.10;;;8.55;;
41139;SDS011;26881;48.784;9.192;2022-09-24T03:47:10;11.77;;;8.02;;
41139;SDS011;26881;48.784;9.192;2022-09-24T03:52:32;11.82;;;7.75;;
41139;SDS011;26881;48.784;9.192;2022-09-24T03:57:54;14.43;;;7.80;;
41139;SDS011;26881;48.784;9.192;2022-09-24T04:03:16;11.07;;;8.10;;
41139;SDS011;26881;48.784;9.192;2022-09-24T04:08:37;17.30;;;9.77;;
41139;SDS011;26881;48.784;9.192;2022-09-24T04:14:00;13.32;;;8.95;;
41139;SDS011;26881;48.784;9.192;2022-09-24T04:19:22;13.45;;;9.15;;
41139;SDS011;26881;48.784;9.192;2022-09-24T04:24:44;9.38;;;8.48;;
41139;SDS011;26881;48.784;9.192;2022-09-24T04:30:06;13.90;;;8.52;;
41139;SDS011;26881;48.784;9.192;2022-09-24T04:35:29;9.40;;;8.10;;
41139;SDS011;26881;48.784;9.192;2022-09-24T04:40:52;14.32;;;8.98;;
41139;SDS011;26881;48.784;9.192;2022-09-24T04:46:14;11.10;;;8.77;;
41139;SDS011;26881;48.784;9.192;2022-09-24T04:51:39;16.20;;;8.65;;
41139;SDS011;26881;48.784;9.192;2022-09-24T04:57:02;13.82;;;8.32;;
41139;SDS011;26881;48.784;9.192;2022-09-24T05:02:24;10.23;;;7.32;;
41139;SDS011;26881;48.784;9.192;2022-09-24T05:07:46;10.88;;;7.60;;
41139;SDS011;26881;48.784;9.192;2022-09-24T05:13:07;16.08;;;8.18;;
41139;SDS011;26881;48.784;9.192;2022-09-24T05:18:29;11.55;;;8.23;;
41139;SDS011;26881;48.784;9.192;2022-09-24T05:23:51;14.88;;;8.43;;
41139;SDS011;26881;48.784;9.192;2022-09-24T05:29:13;9.27;;;7.82;;
41139;SDS011;26881;48.784;9.192;2022-09-24T05:34:34;12.73;;;8.13;;
41139;SDS011;26881;48.784;9.192;2022-09-24T05:39:56;12.27;;;8.20;;
41139;SDS011;26881;48.784;9.192;2022-09-24T05:45:38;11.88;;;7.90;;
41139;SDS011;26881;48.784;9.192;2022-09-24T05:51:00;10.52;;;8.18;;
41139;SDS011;26881;48.784;9.192;2022-09-24T05:56:22;14.23;;;8.32;;
41139;SDS011;26881;48.784;9.192;2022-09-24T06:01:44;9.60;;;7.53;;
41139;SDS011;26881;48.784;9.192;2022-09-24T06:07:06;17.70;;;8.57;;
41139;SDS011;26881;48.784;9.192;2022-09-24T06:12:28;10.25;;;8.50;;
41139;SDS011;26881;48.784;9.192;2022-09-24T06:17:51;13.25;;;8.88;;
41139;SDS011;26881;48.784;9.192;2022-09-24T06:23:14;12.18;;;8.57;;
41139;SDS011;26881;48.784;9.192;2022-09-24T06:28:36;14.45;;;8.13;;
41139;SDS011;26881;48.784;9.192;2022-09-24T06:33:58;15.65;;;9.00;;
41139;SDS011;26881;48.784;9.192;2022-09-24T06:39:21;11.20;;;8.70;;
41139;SDS011;26881;48.784;9.192;2022-09-24T06:44:43;13.30;;;9.00;;
41139;SDS011;26881;48.784;9.192;2022-09-24T06:50:05;14.50;;;9.20;;
41139;SDS011;26881;48.784;9.192;2022-09-24T06:55:30;13.88;;;9.10;;
41139;SDS011;26881;48.784;9.192;2022-09-24T07:00:56;11.57;;;9.30;;
41139;SDS011;26881;48.784;9.192;2022-09-24T07:06:20;15.13;;;9.23;;
41139;SDS011;26881;48.784;9.192;2022-09-24T07:11:42;12.65;;;8.82;;
41139;SDS011;26881;48.784;9.192;2022-09-24T07:17:07;10.75;;;9.07;;
41139;SDS011;26881;48.784;9.192;2022-09-24T07:22:28;12.32;;;9.15;;
41139;SDS011;26881;48.784;9.192;2022-09-24T07:27:50;14.90;;;9.48;;
41139;SDS011;26881;48.784;9.192;2022-09-24T07:33:12;14.75;;;8.63;;
41139;SDS011;26881;48.784;9.192;2022-09-24T07:38:34;14.30;;;8.50;;
41139;SDS011;26881;48.784;9.192;2022-09-24T07:43:59;10.27;;;8.50;;
41139;SDS011;26881;48.784;9.192;2022-09-24T07:49:21;13.27;;;8.60;;
41139;SDS011;26881;48.784;9.192;2022-09-24T07:54:43;13.27;;;9.50;;
41139;SDS011;26881;48.784;9.192;2022-09-24T08:00:05;10.75;;;8.98;;
41139;SDS011;26881;48.784;9.192;2022-09-24T08:05:27;10.43;;;8.88;;
41139;SDS011;26881;48.784;9.192;2022-09-24T08:10:49;10.57;;;8.18;;
41139;SDS011;26881;48.784;9.192;2022-09-24T08:16:11;9.85;;;8.82;;
41139;SDS011;26881;48.784;9.192;2022-09-24T08:21:33;12.95;;;8.30;;
41139;SDS011;26881;48.784;9.192;2022-09-24T08:26:55;12.43;;;8.27;;
41139;SDS011;26881;48.784;9.192;2022-09-24T08:32:18;12.43;;;8.57;;
41139;SDS011;26881;48.784;9.192;2022-09-24T08:37:40;14.30;;;8.10;;
41139;SDS011;26881;48.784;9.192;2022-09-24T08:43:12;11.75;;;8.38;;
41139;SDS011;26881;48.784;9.192;2022-09-24T08:48:47;13.45;;;8.65;;
41139;SDS011;26881;48.784;9.192;2022-09-24T08:54:15;13.82;;;8.35;;
41139;SDS011;26881;48.784;9.192;2022-09-24T08:59:38;10.73;;;8.60;;
41139;SDS011;26881;48.784;9.192;2022-09-24T09:11:10;12.95;;;8.65;;
41139;SDS011;26881;48.784;9.192;2022-09-24T09:16:43;12.23;;;7.80;;
41139;SDS011;26881;48.784;9.192;2022-09-24T09:22:12;12.45;;;8.18;;
41139;SDS011;26881;48.784;9.192;2022-09-24T09:27:35;11.85;;;7.40;;
41139;SDS011;26881;48.784;9.192;2022-09-24T09:33:07;11.93;;;8.20;;
41139;SDS011;26881;48.784;9.192;2022-09-24T09:39:04;7.20;;;6.10;;
41139;SDS011;26881;48.784;9.192;2022-09-24T09:44:50;3.67;;;2.58;;
41139;SDS011;26881;48.784;9.192;2022-09-24T09:55:58;6.55;;;3.08;;
41139;SDS011;26881;48.784;9.192;2022-09-24T10:01:29;3.75;;;2.70;;
41139;SDS011;26881;48.784;9.192;2022-09-24T10:07:01;2.60;;;2.40;;
41139;SDS011;26881;48.784;9.192;2022-09-24T10:12:24;3.28;;;2.95;;
41139;SDS011;26881;48.784;9.192;2022-09-24T10:17:48;2.97;;;2.50;;
41139;SDS011;26881;48.784;9.192;2022-09-24T10:23:19;3.67;;;3.30;;
41139;SDS011;26881;48.784;9.192;2022-09-24T10:28:44;3.75;;;3.17;;
41139;SDS011;26881;48.784;9.192;2022-09-24T10:34:27;5.70;;;3.42;;
41139;SDS011;26881;48.784;9.192;2022-09-24T10:39:56;3.58;;;3.13;;
41139;SDS011;26881;48.784;9.192;2022-09-24T10:45:19;3.70;;;3.20;;
41139;SDS011;26881;48.784;9.192;2022-09-24T10:50:44;4.00;;;3.50;;
41139;SDS011;26881;48.784;9.192;2022-09-24T11:07:49;4.15;;;3.35;;
41139;SDS011;26881;48.784;9.192;2022-09-24T11:42:04;2.33;;;2.13;;
41139;SDS011;26881;48.784;9.192;2022-09-24T11:54:25;5.00;;;2.63;;
41139;SDS011;26881;48.784;9.192;2022-09-24T11:59:52;4.30;;;2.88;;
41139;SDS011;26881;48.784;9.192;2022-09-24T12:05:34;4.47;;;3.50;;
41139;SDS011;26881;48.784;9.192;2022-09-24T12:16:28;3.65;;;3.35;;
41139;SDS011;26881;48.784;9.192;2022-09-24T12:21:56;3.53;;;3.20;;
41139;SDS011;26881;48.784;9.192;2022-09-24T12:27:24;5.88;;;3.75;;
41139;SDS011;26881;48.784;9.192;2022-09-24T12:38:31;4.57;;;3.88;;
41139;SDS011;26881;48.784;9.192;2022-09-24T12:44:45;6.03;;;3.85;;
41139;SDS011;26881;48.784;9.192;2022-09-24T12:50:02;5.18;;;3.95;;
41139;SDS011;26881;48.784;9.192;2022-09-24T12:55:33;8.60;;;4.90;;
41139;SDS011;26881;48.784;9.192;2022-09-24T13:01:38;5.10;;;4.03;;
41139;SDS011;26881;48.784;9.192;2022-09-24T13:06:42;7.30;;;4.82;;
41139;SDS011;26881;48.784;9.192;2022-09-24T13:17:41;8.15;;;6.18;;
41139;SDS011;26881;48.784;9.192;2022-09-24T13:39:34;7.43;;;5.63;;
41139;SDS011;26881;48.784;9.192;2022-09-24T13:45:09;8.35;;;5.68;;
41139;SDS011;26881;48.784;9.192;2022-09-24T13:50:38;7.22;;;4.70;;
41139;SDS011;26881;48.784;9.192;2022-09-24T13:56:16;6.57;;;5.35;;
41139;SDS011;26881;48.784;9.192;2022-09-24T14:01:40;7.88;;;5.50;;
41139;SDS011;26881;48.784;9.192;2022-09-24T14:07:03;10.70;;;6.07;;
41139;SDS011;26881;48.784;9.192;2022-09-24T14:12:25;9.95;;;7.05;;
41139;SDS011;26881;48.784;9.192;2022-09-24T14:17:55;7.85;;;6.75;;
41139;SDS011;26881;48.784;9.192;2022-09-24T14:23:18;9.32;;;6.20;;
41139;SDS011;26881;48.784;9.192;2022-09-24T14:28:43;8.88;;;6.85;;
41139;SDS011;26881;48.784;9.192;2022-09-24T14:34:05;9.05;;;6.60;;
41139;SDS011;26881;48.784;9.192;2022-09-24T14:39:27;7.13;;;6.43;;
41139;SDS011;26881;48.784;9.192;2022-09-24T14:44:50;9.27;;;7.30;;
41139;SDS011;26881;48.784;9.192;2022-09-24T14:50:24;7.30;;;6.45;;
41139;SDS011;26881;48.784;9.192;2022-09-24T14:55:57;7.00;;;5.85;;
41139;SDS011;26881;48.784;9.192;2022-09-24T15:01:19;6.43;;;5.10;;
41139;SDS011;26881;48.784;9.192;2022-09-24T15:06:45;5.70;;;5.15;;
41139;SDS011;26881;48.784;9.192;2022-09-24T15:12:09;8.65;;;6.38;;
41139;SDS011;26881;48.784;9.192;2022-09-24T15:17:42;7.50;;;6.10;;
41139;SDS011;26881;48.784;9.192;2022-09-24T15:23:07;6.93;;;6.25;;
41139;SDS011;26881;48.784;9.192;2022-09-24T15:28:29;8.60;;;6.55;;
41139;SDS011;26881;48.784;9.192;2022-09-24T15:33:51;9.88;;;6.15;;
41139;SDS011;26881;48.784;9.192;2022-09-24T15:39:13;7.07;;;5.93;;
41139;SDS011;26881;48.784;9.192;2022-09-24T15:44:37;6.78;;;5.70;;
41139;SDS011;26881;48.784;9.192;2022-09-24T15:50:00;7.05;;;6.38;;
41139;SDS011;26881;48.784;9.192;2022-09-24T15:55:22;8.40;;;7.07;;
41139;SDS011;26881;48.784;9.192;2022-09-24T16:00:44;9.63;;;8.30;;
41139;SDS011;26881;48.784;9.192;2022-09-24T16:06:08;10.25;;;7.93;;
41139;SDS011;26881;48.784;9.192;2022-09-24T16:11:31;9.23;;;8.05;;
41139;SDS011;26881;48.784;9.192;2022-09-24T16:16:53;9.85;;;8.85;;
41139;SDS011;26881;48.784;9.192;2022-09-24T16:22:16;9.43;;;8.50;;
41139;SDS011;26881;48.784;9.192;2022-09-24T16:27:41;9.77;;;8.77;;
41139;SDS011;26881;48.784;9.192;2022-09-24T16:33:03;8.73;;;7.93;;
41139;SDS011;26881;48.784;9.192;2022-09-24T16:38:25;9.70;;;7.32;;
41139;SDS011;26881;48.784;9.192;2022-09-24T16:43:47;8.40;;;7.47;;
41139;SDS011;26881;48.784;9.192;2022-09-24T16:49:09;9.18;;;8.27;;
41139;SDS011;26881;48.784;9.192;2022-09-24T16:54:31;9.32;;;8.43;;
41139;SDS011;26881;48.784;9.192;2022-09-24T16:59:53;9.57;;;8.57;;
41139;SDS011;26881;48.784;9.192;2022-09-24T17:05:15;9.65;;;8.32;;
41139;SDS011;26881;48.784;9.192;2022-09-24T17:10:37;8.98;;;8.00;;
41139;SDS011;26881;48.784;9.192;2022-09-24T17:16:03;9.43;;;7.55;;
41139;SDS011;26881;48.784;9.192;2022-09-24T17:21:25;9.20;;;8.35;;
41139;SDS011;26881;48.784;9.192;2022-09-24T17:26:48;8.90;;;8.10;;
41139;SDS011;26881;48.784;9.192;2022-09-24T17:32:10;8.70;;;7.80;;
41139;SDS011;26881;48.784;9.192;2022-09-24T17:37:32;9.10;;;7.43;;
41139;SDS011;26881;48.784;9.192;2022-09-24T17:42:54;8.48;;;7.35;;
41139;SDS011;26881;48.784;9.192;2022-09-24T17:48:16;8.77;;;7.88;;
41139;SDS011;26881;48.784;9.192;2022-09-24T17:53:38;8.07;;;7.35;;
41139;SDS011;26881;48.784;9.192;2022-09-24T17:59:00;9.35;;;7.68;;
41139;SDS011;26881;48.784;9.192;2022-09-24T18:04:22;9.10;;;8.05;;
41139;SDS011;26881;48.784;9.192;2022-09-24T18:09:47;9.27;;;8.20;;
41139;SDS011;26881;48.784;9.192;2022-09-24T18:15:12;8.93;;;8.13;;
41139;SDS011;26881;48.784;9.192;2022-09-24T18:20:34;8.98;;;8.05;;
41139;SDS011;26881;48.784;9.192;2022-09-24T18:26:07;8.30;;;7.47;;
41139;SDS011;26881;48.784;9.192;2022-09-24T18:31:31;10.43;;;8.70;;
41139;SDS011;26881;48.784;9.192;2022-09-24T18:36:53;11.80;;;9.85;;
41139;SDS011;26881;48.784;9.192;2022-09-24T18:42:15;11.02;;;8.48;;
41139;SDS011;26881;48.784;9.192;2022-09-24T18:47:37;10.48;;;8.20;;
41139;SDS011;26881;48.784;9.192;2022-09-24T18:52:59;11.98;;;7.80;;
41139;SDS011;26881;48.784;9.192;2022-09-24T18:58:21;9.98;;;8.30;;
41139;SDS011;26881;48.784;9.192;2022-09-24T19:03:43;12.80;;;8.95;;
41139;SDS011;26881;48.784;9.192;2022-09-24T19:09:04;12.63;;;10.95;;
41139;SDS011;26881;48.784;9.192;2022-09-24T19:14:27;17.00;;;10.90;;
41139;SDS011;26881;48.784;9.192;2022-09-24T19:19:48;14.35;;;10.68;;
41139;SDS011;26881;48.784;9.192;2022-09-24T19:25:13;13.10;;;11.45;;
41139;SDS011;26881;48.784;9.192;2022-09-24T19:30:42;17.58;;;12.57;;
41139;SDS011;26881;48.784;9.192;2022-09-24T19:36:05;14.57;;;12.70;;
41139;SDS011;26881;48.784;9.192;2022-09-24T19:41:27;17.92;;;15.32;;
41139;SDS011;26881;48.784;9.192;2022-09-24T19:46:49;14.23;;;12.80;;
41139;SDS011;26881;48.784;9.192;2022-09-24T19:52:11;14.88;;;12.80;;
41139;SDS011;26881;48.784;9.192;2022-09-24T19:57:32;14.85;;;13.40;;
41139;SDS011;26881;48.784;9.192;2022-09-24T20:02:55;15.48;;;13.90;;
41139;SDS011;26881;48.784;9.192;2022-09-24T20:08:17;16.23;;;13.70;;
41139;SDS011;26881;48.784;9.192;2022-09-24T20:13:39;16.75;;;14.60;;
41139;SDS011;26881;48.784;9.192;2022-09-24T20:19:06;15.38;;;13.63;;
41139;SDS011;26881;48.784;9.192;2022-09-24T20:24:28;14.90;;;13.43;;
41139;SDS011;26881;48.784;9.192;2022-09-24T20:29:50;15.30;;;13.82;;
41139;SDS011;26881;48.784;9.192;2022-09-24T20:35:14;14.18;;;12.50;;
41139;SDS011;26881;48.784;9.192;2022-09-24T20:40:37;12.80;;;11.40;;
41139;SDS011;26881;48.784;9.192;2022-09-24T20:46:00;14.75;;;12.70;;
41139;SDS011;26881;48.784;9.192;2022-09-24T20:51:22;13.07;;;10.45;;
41139;SDS011;26881;48.784;9.192;2022-09-24T20:56:44;12.77;;;10.75;;
41139;SDS011;26881;48.784;9.192;2022-09-24T21:02:07;11.48;;;10.30;;
41139;SDS011;26881;48.784;9.192;2022-09-24T21:07:31;11.40;;;10.30;;
41139;SDS011;26881;48.784;9.192;2022-09-24T21:12:53;15.32;;;11.15;;
41139;SDS011;26881;48.784;9.192;2022-09-24T21:18:15;14.10;;;10.57;;
41139;SDS011;26881;48.784;9.192;2022-09-24T21:23:45;14.05;;;12.55;;
41139;SDS011;26881;48.784;9.192;2022-09-24T21:29:10;13.25;;;11.93;;
41139;SDS011;26881;48.784;9.192;2022-09-24T21:34:37;13.00;;;11.65;;
41139;SDS011;26881;48.784;9.192;2022-09-24T21:39:59;13.07;;;10.88;;
41139;SDS011;26881;48.784;9.192;2022-09-24T21:45:22;12.15;;;10.93;;
41139;SDS011;26881;48.784;9.192;2022-09-24T21:50:44;12.73;;;11.45;;
41139;SDS011;26881;48.784;9.192;2022-09-24T21:56:06;13.30;;;11.70;;
41139;SDS011;26881;48.784;9.192;2022-09-24T22:01:28;14.35;;;11.90;;
41139;SDS011;26881;48.784;9.192;2022-09-24T22:06:54;13.38;;;11.70;;
41139;SDS011;26881;48.784;9.192;2022-09-24T22:12:15;12.60;;;11.30;;
41139;SDS011;26881;48.784;9.192;2022-09-24T22:17:37;13.63;;;11.48;;
41139;SDS011;26881;48.784;9.192;2022-09-24T22:22:59;14.18;;;12.10;;
41139;SDS011;26881;48.784;9.192;2022-09-24T22:28:21;17.25;;;12.25;;
41139;SDS011;26881;48.784;9.192;2022-09-24T22:33:44;14.85;;;13.23;;
41139;SDS011;26881;48.784;9.192;2022-09-24T22:39:25;14.90;;;12.55;;
41139;SDS011;26881;48.784;9.192;2022-09-24T22:44:47;13.93;;;12.52;;
41139;SDS011;26881;48.784;9.192;2022-09-24T22:50:09;13.10;;;11.70;;
41139;SDS011;26881;48.784;9.192;2022-09-24T22:55:30;15.05;;;11.95;;
41139;SDS011;26881;48.784;9.192;2022-09-24T23:00:53;14.80;;;12.90;;
41139;SDS011;26881;48.784;9.192;2022-09-24T23:06:15;14.43;;;12.95;;
41139;SDS011;26881;48.784;9.192;2022-09-24T23:11:38;17.25;;;12.70;;
41139;SDS011;26881;48.784;9.192;2022-09-24T23:17:00;14.25;;;12.75;;
41139;SDS011;26881;48.784;9.192;2022-09-24T23:22:22;15.32;;;13.30;;
41139;SDS011;26881;48.784;9.192;2022-09-24T23:27:43;16.83;;;14.05;;
41139;SDS011;26881;48.784;9.192;2022-09-24T23:33:05;14.70;;;12.32;;
41139;SDS011;26881;48.784;9.192;2022-09-24T23:38:27;14.35;;;12.88;;
41139;SDS011;26881;48.784;9.192;2022-09-24T23:43:49;14.77;;;13.23;;
41139;SDS011;26881;48.784;9.192;2022-09-24T23:49:11;18.00;;;13.55;;
41139;SDS011;26881;48.784;9.192;2022-09-24T23:54:34;14.50;;;13.00;;
